Archival Weather

Fayette Rgnl Air Cntr Arp

Fayette Rgnl Air Cntr Arp, Texas (K3T5)

Report from: Thursday, September 22, 2022 6:55 AM CDT
Current time: Friday, February 3, 2023 11:27 PM CST

Current weather
Weather history
Weather forecast

Present weatherMist
Temperature20.0°C (68.0°F)
Dew point20.0°C (68.0°F)
Winds Calm
Visibility4 mi. (6.4 km)
Clouds Sky clear
Altimeter30.00 in.Hg (1016 mB)
Relative humidity100 %
Density altitude812 ft. (247 m)
Remarks Fully automated report
Automated weather observing station with precipitation discriminator
Flight conditions Marginal Visual Meteorological Conditions
Raw dataK3T5 221155Z AUTO 00000KT 4SM BR CLR 20/20 A3000 RMK AO2 T02000200 10245 20196
An unhandled exception has occurred. See browser dev tools for details. Reload 🗙